Time;durP1;ratioP1;P1;durP2;ratioP2;P2;SDS_P1;SDS_P2;PMS_P1;PMS_P2;Temp;Humidity;BMP_temperature;BMP_pressure;BME280_temperature;BME280_humidity;BME280_pressure;Samples;Min_cycle;Max_cycle;Signal;HPM_P1;HPM_P2
2022/04/12 00:50:04;;;;;;;14.35;6.43;;;;;;;7.96;70.03;101239.47;5049745;28;20407;-68
2022/04/12 00:52:36;;;;;;;12.80;6.25;;;;;;;8.10;69.04;101243.50;5070186;28;20049;-68
2022/04/12 00:55:05;;;;;;;13.70;6.43;;;;;;;7.97;69.17;101235.66;5071775;28;20395;-68
2022/04/12 00:57:33;;;;;;;12.70;5.68;;;;;;;8.07;68.46;101239.38;5071912;28;20045;-68
2022/04/12 01:00:04;;;;;;;9.63;5.88;;;;;;;8.08;68.38;101240.22;5071253;28;20052;-68
2022/04/12 01:02:33;;;;;;;11.25;5.60;;;;;;;8.09;67.99;101233.69;5086243;28;20056;-68
2022/04/12 01:05:02;;;;;;;11.40;6.10;;;;;;;7.97;68.85;101231.00;5071533;28;20061;-68
2022/04/12 01:07:31;;;;;;;12.88;6.25;;;;;;;8.08;68.33;101234.75;5071415;28;20576;-68
2022/04/12 01:10:23;;;;;;;7.95;5.40;;;;;;;7.97;69.32;101231.00;5071485;28;20064;-68
2022/04/12 01:12:52;;;;;;;10.23;5.95;;;;;;;7.85;69.40;101228.38;5057948;28;20060;-68
2022/04/12 01:15:23;;;;;;;11.18;6.32;;;;;;;7.75;69.80;101234.47;5071569;28;20543;-68
2022/04/12 01:17:52;;;;;;;9.68;6.40;;;;;;;7.64;70.35;101224.47;5070080;28;20380;-68
2022/04/12 01:20:24;;;;;;;11.27;6.13;;;;;;;7.49;71.59;101228.53;5070657;28;20052;-68
2022/04/12 01:23:05;;;;;;;10.98;5.95;;;;;;;7.45;71.41;101221.09;5072587;28;20402;-68
2022/04/12 01:25:33;;;;;;;14.15;6.25;;;;;;;7.41;71.91;101231.66;5075178;28;20053;-68
2022/04/12 01:28:01;;;;;;;9.93;5.70;;;;;;;7.37;72.34;101227.75;5074967;28;20044;-68
2022/04/12 01:30:29;;;;;;;10.18;6.05;;;;;;;7.48;72.07;101228.78;5074772;28;20048;-68
2022/04/12 01:32:57;;;;;;;12.98;5.90;;;;;;;7.47;72.04;101225.22;5073501;28;20052;-68
2022/04/12 01:35:26;;;;;;;10.93;5.65;;;;;;;7.56;71.42;101233.00;5074823;28;20052;-68
2022/04/12 01:37:54;;;;;;;10.48;5.72;;;;;;;7.73;70.14;101228.41;5074768;28;20056;-68
2022/04/12 01:40:22;;;;;;;10.57;5.55;;;;;;;7.89;69.56;101228.72;5074692;28;20040;-68
2022/04/12 01:42:52;;;;;;;12.13;6.57;;;;;;;7.89;69.44;101225.97;5074260;28;20056;-68
2022/04/12 01:45:21;;;;;;;10.70;5.93;;;;;;;7.91;69.31;101230.13;5074321;28;20048;-68
2022/04/12 01:47:49;;;;;;;11.27;5.80;;;;;;;7.90;69.33;101225.75;5074722;28;20045;-68
2022/04/12 01:50:17;;;;;;;10.73;5.55;;;;;;;7.79;69.68;101226.63;5073710;28;20494;-68
2022/04/12 01:52:45;;;;;;;9.63;5.78;;;;;;;7.73;70.19;101222.16;5074349;28;20052;-68
2022/04/12 01:55:14;;;;;;;10.40;5.95;;;;;;;7.70;70.45;101220.75;5074523;28;20044;-68
2022/04/12 01:57:42;;;;;;;11.18;6.28;;;;;;;7.69;70.88;101232.72;5074529;28;20060;-68
2022/04/12 02:00:11;;;;;;;9.48;5.97;;;;;;;7.74;70.08;101230.09;5074091;28;20107;-68
2022/04/12 02:02:39;;;;;;;9.90;5.75;;;;;;;7.69;70.31;101226.44;5074537;28;20041;-68
2022/04/12 02:05:08;;;;;;;10.45;6.28;;;;;;;7.71;70.34;101224.28;5074006;28;20788;-68
2022/04/12 02:07:36;;;;;;;12.95;6.70;;;;;;;7.58;70.58;101226.25;5073889;28;20045;-68
2022/04/12 02:10:05;;;;;;;12.27;6.63;;;;;;;7.55;70.89;101225.91;5073824;28;20079;-68
2022/04/12 02:12:33;;;;;;;10.90;5.95;;;;;;;7.44;71.38;101224.88;5073198;28;20044;-68
2022/04/12 02:15:01;;;;;;;10.15;6.40;;;;;;;7.48;71.34;101221.44;5074204;28;20052;-68
2022/04/12 02:17:29;;;;;;;11.68;6.75;;;;;;;7.39;72.09;101206.56;5074062;28;20041;-68
2022/04/12 02:19:57;;;;;;;11.57;6.30;;;;;;;7.25;72.59;101215.00;5073693;28;20045;-68
2022/04/12 02:22:24;;;;;;;8.82;5.93;;;;;;;7.25;72.88;101215.00;5073763;28;20053;-68
2022/04/12 02:24:52;;;;;;;12.10;6.20;;;;;;;7.27;73.51;101209.31;5074092;28;20044;-68
2022/04/12 02:27:20;;;;;;;10.45;6.43;;;;;;;7.31;72.68;101209.66;5071540;28;20051;-68
2022/04/12 02:29:48;;;;;;;11.82;5.90;;;;;;;7.35;72.30;101214.41;5073706;28;20033;-69
2022/04/12 02:32:16;;;;;;;9.57;5.32;;;;;;;7.36;72.40;101220.66;5073442;28;20052;-68
2022/04/12 02:34:44;;;;;;;10.50;5.88;;;;;;;7.22;73.09;101215.50;5073134;28;20036;-68
2022/04/12 02:37:12;;;;;;;11.38;5.25;;;;;;;7.15;73.17;101217.53;5072505;28;20055;-68
2022/04/12 02:39:40;;;;;;;11.77;5.82;;;;;;;7.15;73.14;101217.53;5073613;28;20052;-68
2022/04/12 02:42:11;;;;;;;10.15;5.90;;;;;;;7.17;73.75;101220.00;5073525;28;20037;-68
2022/04/12 02:44:39;;;;;;;11.75;5.88;;;;;;;7.08;73.59;101216.81;5073719;28;20041;-68
2022/04/12 02:47:07;;;;;;;8.77;5.43;;;;;;;6.99;73.99;101217.22;5073026;28;20051;-68
2022/04/12 02:49:37;;;;;;;10.45;6.13;;;;;;;6.91;74.63;101204.00;5072995;28;20041;-68
2022/04/12 02:52:06;;;;;;;8.40;5.10;;;;;;;6.86;75.07;101215.56;5072820;28;20053;-68
2022/04/12 02:54:34;;;;;;;10.15;5.30;;;;;;;6.83;74.75;101212.50;5073518;28;20502;-68
2022/04/12 02:57:02;;;;;;;12.05;6.13;;;;;;;6.83;74.86;101204.34;5073169;28;20052;-68
2022/04/12 02:59:30;;;;;;;10.82;5.68;;;;;;;6.85;75.16;101207.66;5073183;28;20494;-68
2022/04/12 03:01:58;;;;;;;11.05;5.78;;;;;;;6.78;75.23;101206.94;5073137;28;20033;-68
2022/04/12 03:04:26;;;;;;;13.75;6.35;;;;;;;6.67;75.96;101212.19;5073239;28;20048;-69
2022/04/12 03:06:54;;;;;;;10.77;5.63;;;;;;;6.65;76.52;101210.75;5073116;28;20041;-68
2022/04/12 03:09:22;;;;;;;10.60;6.10;;;;;;;6.69;76.22;101209.19;5072243;28;20079;-68
2022/04/12 03:11:50;;;;;;;9.68;6.57;;;;;;;6.72;76.26;101215.03;5073002;28;20395;-68
2022/04/12 03:14:18;;;;;;;10.50;5.63;;;;;;;6.76;75.88;101200.94;5070549;28;20064;-68
2022/04/12 03:16:46;;;;;;;12.55;6.75;;;;;;;6.65;77.11;101202.59;5072889;28;20051;-68
2022/04/12 03:19:14;;;;;;;11.38;6.50;;;;;;;6.58;76.80;101206.28;5072681;28;20499;-68
2022/04/12 03:21:42;;;;;;;9.40;5.95;;;;;;;6.47;77.75;101209.00;5072824;28;20053;-68
2022/04/12 03:24:10;;;;;;;11.10;6.55;;;;;;;6.48;77.78;101210.63;5072478;28;20063;-68
2022/04/12 03:26:38;;;;;;;10.85;5.88;;;;;;;6.47;77.69;101206.25;5072669;28;20067;-68
2022/04/12 03:29:07;;;;;;;12.70;6.28;;;;;;;6.49;77.81;101204.16;5072155;28;20052;-68
2022/04/12 03:31:35;;;;;;;11.88;6.57;;;;;;;6.69;77.28;101198.31;5064495;28;20044;-68
2022/04/12 03:34:03;;;;;;;9.82;6.10;;;;;;;6.59;77.62;101204.38;5072386;28;20055;-68
2022/04/12 03:36:31;;;;;;;12.02;6.45;;;;;;;6.47;78.01;101209.00;5071705;28;20044;-68
2022/04/12 03:38:59;;;;;;;10.68;6.60;;;;;;;6.33;78.89;101201.06;5072401;28;20055;-68
2022/04/12 03:41:27;;;;;;;10.23;6.13;;;;;;;6.25;79.45;101201.44;5071958;28;20048;-68
2022/04/12 03:43:54;;;;;;;14.40;6.15;;;;;;;6.26;78.95;101201.19;5072310;28;20391;-68
2022/04/12 03:46:22;;;;;;;13.68;6.97;;;;;;;6.33;78.47;101209.22;5071553;28;20044;-68
2022/04/12 03:48:50;;;;;;;10.50;6.57;;;;;;;6.50;78.65;101217.50;5072196;28;20040;-68
2022/04/12 03:51:20;;;;;;;15.35;6.97;;;;;;;6.58;78.25;101224.47;5072023;28;20045;-68
2022/04/12 03:53:49;;;;;;;13.45;6.57;;;;;;;6.61;78.45;101212.28;5070885;28;20040;-68
2022/04/12 03:56:17;;;;;;;13.23;7.50;;;;;;;6.62;78.38;101213.94;5072116;28;20059;-68
2022/04/12 03:58:45;;;;;;;12.43;6.22;;;;;;;6.67;77.87;101211.34;5072118;28;20048;-68
2022/04/12 04:01:13;;;;;;;15.20;6.50;;;;;;;6.65;77.85;101211.56;5072065;28;20040;-69
2022/04/12 04:03:42;;;;;;;14.23;6.30;;;;;;;6.59;78.91;101223.41;5071614;28;20057;-69
2022/04/12 04:06:11;;;;;;;16.15;7.07;;;;;;;6.61;78.66;101221.28;5072072;28;20037;-69
2022/04/12 04:08:39;;;;;;;17.15;7.60;;;;;;;6.53;79.13;101217.03;5071882;28;20394;-69
2022/04/12 04:11:06;;;;;;;17.55;7.45;;;;;;;6.49;79.34;101220.47;5071007;28;20044;-69
2022/04/12 04:13:36;;;;;;;15.80;7.95;;;;;;;6.49;79.82;101237.59;5071686;28;20045;-68
2022/04/12 04:16:05;;;;;;;14.45;6.95;;;;;;;6.45;80.03;101233.69;5071270;28;20048;-69
2022/04/12 04:18:34;;;;;;;19.80;7.95;;;;;;;6.50;79.98;101235.72;5071777;28;20053;-69
2022/04/12 04:21:03;;;;;;;14.85;7.25;;;;;;;6.42;80.31;101239.59;5071703;28;20033;-69
2022/04/12 04:23:31;;;;;;;14.07;7.57;;;;;;;6.35;81.20;101244.34;5071976;28;20036;-69
2022/04/12 04:25:59;;;;;;;13.82;7.18;;;;;;;6.40;81.57;101239.03;5071691;28;20048;-68
2022/04/12 04:28:30;;;;;;;18.48;7.38;;;;;;;6.34;81.23;101240.78;5071712;28;20045;-68
2022/04/12 04:30:57;;;;;;;11.05;7.47;;;;;;;6.25;81.45;101236.78;5071034;28;20052;-68
2022/04/12 04:33:26;;;;;;;17.00;7.68;;;;;;;6.38;81.26;101235.69;5071698;28;20047;-68
2022/04/12 04:35:53;;;;;;;25.65;9.05;;;;;;;6.87;78.78;101235.44;5070201;28;20048;-76
2022/04/12 04:38:21;;;;;;;16.58;7.80;;;;;;;7.15;77.26;101233.88;5054000;28;20044;-75
2022/04/12 04:40:50;;;;;;;16.95;8.32;;;;;;;7.48;75.23;101236.97;5067421;28;20040;-74
2022/04/12 04:43:18;;;;;;;17.23;7.82;;;;;;;7.75;74.29;101241.81;5052139;28;20395;-74
2022/04/12 04:45:46;;;;;;;14.43;8.38;;;;;;;7.74;73.93;101249.16;5041292;28;20055;-75
2022/04/12 04:48:14;;;;;;;13.35;8.15;;;;;;;7.87;73.53;101250.75;5053951;28;20526;-75
2022/04/12 04:50:42;;;;;;;16.58;8.50;;;;;;;7.87;73.36;101255.38;5069384;28;20048;-74
2022/04/12 04:53:29;;;;;;;17.13;8.50;;;;;;;7.93;72.81;101259.84;5040709;28;20049;-74
2022/04/12 04:56:14;;;;;;;15.00;8.32;;;;;;;8.05;72.58;101262.50;5055957;28;20044;-74
2022/04/12 04:58:52;;;;;;;21.85;9.23;;;;;;;8.03;73.14;101262.75;5056238;28;20395;-74
2022/04/12 05:01:21;;;;;;;15.15;8.75;;;;;;;8.14;72.27;101255.59;5056362;28;20538;-75
2022/04/12 05:03:52;;;;;;;12.45;8.32;;;;;;;8.31;72.24;101262.94;5061502;28;20049;-75
2022/04/12 05:06:21;;;;;;;17.75;9.02;;;;;;;8.38;71.77;101265.50;5048278;28;20056;-75
2022/04/12 05:08:49;;;;;;;12.65;8.18;;;;;;;8.36;71.16;101262.19;5058169;28;20045;-75
2022/04/12 05:11:18;;;;;;;18.75;8.55;;;;;;;8.42;70.64;101261.19;5063105;28;20040;-74
2022/04/12 05:13:49;;;;;;;13.07;7.85;;;;;;;8.47;70.57;101275.75;5074179;28;20040;-74
2022/04/12 05:16:17;;;;;;;12.02;7.70;;;;;;;8.63;69.61;101272.44;5064262;28;20055;-74
2022/04/12 05:18:45;;;;;;;21.17;8.63;;;;;;;8.73;69.36;101278.06;5081795;28;20048;-74
2022/04/12 05:21:13;;;;;;;16.58;7.85;;;;;;;8.81;68.77;101287.75;5074387;28;20048;-75
2022/04/12 05:23:41;;;;;;;16.35;8.25;;;;;;;8.93;68.25;101276.69;5086296;28;20483;-74
2022/04/12 05:26:09;;;;;;;13.77;7.38;;;;;;;9.05;68.07;101282.06;5079044;28;20036;-75
2022/04/12 05:28:41;;;;;;;17.25;8.02;;;;;;;9.14;67.81;101275.06;5073665;28;20045;-75
2022/04/12 05:31:09;;;;;;;14.48;8.55;;;;;;;9.19;67.91;101279.78;5073772;28;20159;-74
2022/04/12 05:33:37;;;;;;;13.45;8.10;;;;;;;9.30;66.96;101281.56;5072965;28;20049;-74
2022/04/12 05:36:06;;;;;;;16.40;8.45;;;;;;;9.31;67.03;101285.97;5074143;28;20036;-74
2022/04/12 05:38:35;;;;;;;13.07;7.85;;;;;;;9.47;66.58;101292.44;5072712;28;20368;-74
2022/04/12 05:41:03;;;;;;;14.38;8.98;;;;;;;9.44;66.40;101287.50;5074760;28;20048;-74
2022/04/12 05:43:31;;;;;;;13.68;9.07;;;;;;;9.37;66.72;101295.88;5074245;28;20051;-72
2022/04/12 05:45:59;;;;;;;17.27;8.63;;;;;;;9.35;66.78;101295.31;5074862;28;20044;-73
2022/04/12 05:48:26;;;;;;;17.50;8.90;;;;;;;9.25;67.44;101292.44;5074677;28;20402;-73
2022/04/12 05:50:54;;;;;;;12.77;8.50;;;;;;;9.33;67.08;101291.19;5074381;28;20056;-73
2022/04/12 05:53:22;;;;;;;14.55;8.50;;;;;;;9.43;66.85;101285.81;5074669;28;20052;-73
2022/04/12 05:55:50;;;;;;;13.48;8.50;;;;;;;9.56;66.56;101284.59;5060614;28;20048;-73
2022/04/12 05:58:18;;;;;;;13.50;7.80;;;;;;;9.50;67.79;101291.09;5072599;28;20047;-73
2022/04/12 06:00:46;;;;;;;11.75;7.85;;;;;;;9.53;67.64;101307.81;5074117;28;20483;-73
2022/04/12 06:03:14;;;;;;;12.63;7.93;;;;;;;9.54;67.57;101308.66;5074206;28;20387;-73
2022/04/12 06:05:42;;;;;;;12.25;7.97;;;;;;;9.57;67.85;101312.78;5074247;28;20041;-73
2022/04/12 06:08:10;;;;;;;14.52;8.00;;;;;;;9.58;67.64;101314.41;5074324;28;20036;-73
2022/04/12 06:10:38;;;;;;;15.48;8.38;;;;;;;9.67;67.52;101321.91;5073014;28;20044;-73
2022/04/12 06:13:06;;;;;;;13.82;7.82;;;;;;;9.83;67.16;101330.28;5074148;28;20047;-73
2022/04/12 06:15:34;;;;;;;19.55;9.10;;;;;;;10.01;66.64;101325.53;5074026;28;20059;-73
2022/04/12 06:18:07;;;;;;;17.35;8.77;;;;;;;10.11;66.66;101330.31;5074142;28;20052;-73
2022/04/12 06:20:35;;;;;;;16.42;8.98;;;;;;;10.14;66.32;101325.13;5074105;28;20063;-73
2022/04/12 06:23:04;;;;;;;20.48;8.10;;;;;;;10.21;66.20;101322.16;5058803;28;20044;-73
2022/04/12 06:25:32;;;;;;;18.77;9.57;;;;;;;10.38;65.47;101321.22;5073927;28;20044;-73
2022/04/12 06:28:00;;;;;;;17.58;8.82;;;;;;;10.45;65.32;101316.41;5086977;28;20483;-73
2022/04/12 06:30:30;;;;;;;16.67;8.00;;;;;;;10.60;64.03;101318.44;5064815;28;20040;-73
2022/04/12 06:32:58;;;;;;;14.07;8.43;;;;;;;10.81;64.09;101324.88;5072445;28;20047;-73
2022/04/12 06:35:26;;;;;;;14.82;9.65;;;;;;;10.69;64.61;101321.50;5072421;28;20045;-73
2022/04/12 06:37:56;;;;;;;15.75;8.60;;;;;;;10.72;64.89;101327.28;5073686;28;20788;-73
2022/04/12 06:40:25;;;;;;;14.25;8.68;;;;;;;10.91;63.61;101326.03;5073614;28;20040;-74
2022/04/12 06:42:53;;;;;;;12.60;8.10;;;;;;;11.18;62.63;101325.94;5073565;28;20059;-74
2022/04/12 06:45:21;;;;;;;11.27;8.32;;;;;;;11.19;63.32;101324.84;5073509;28;20391;-74
2022/04/12 06:47:54;;;;;;;18.10;8.98;;;;;;;11.24;63.22;101332.28;5089002;28;20037;-73
2022/04/12 06:50:24;;;;;;;16.87;8.27;;;;;;;11.36;62.68;101337.53;5073061;28;20040;-73
2022/04/12 06:52:54;;;;;;;15.88;9.10;;;;;;;11.43;62.28;101329.88;5073353;28;20044;-73
2022/04/12 06:55:22;;;;;;;17.17;8.93;;;;;;;11.55;62.14;101321.44;5073129;28;20045;-73
2022/04/12 06:57:50;;;;;;;12.80;8.77;;;;;;;11.61;61.73;101327.78;5071973;28;20044;-73
2022/04/12 07:00:19;;;;;;;16.25;8.35;;;;;;;11.63;62.19;101328.34;5073225;28;20052;-73
2022/04/12 07:02:48;;;;;;;16.30;8.70;;;;;;;11.67;61.73;101334.91;5071850;28;20059;-73
2022/04/12 07:05:16;;;;;;;19.83;8.73;;;;;;;11.79;62.04;101341.00;5073179;28;20388;-73
2022/04/12 07:07:45;;;;;;;11.88;7.80;;;;;;;11.78;62.00;101338.53;5071216;28;20048;-73
2022/04/12 07:10:15;;;;;;;16.70;7.80;;;;;;;11.85;60.49;101338.25;5072939;28;20044;-73
2022/04/12 07:12:44;;;;;;;14.90;8.35;;;;;;;12.03;59.33;101335.00;5071178;28;20051;-73
2022/04/12 07:15:13;;;;;;;13.13;7.68;;;;;;;12.18;59.26;101331.50;5072960;28;20053;-73
2022/04/12 07:17:42;;;;;;;10.52;7.57;;;;;;;12.30;58.86;101341.41;5071445;28;20048;-73
2022/04/12 07:20:10;;;;;;;10.88;6.75;;;;;;;12.24;60.31;101337.84;5055013;28;20403;-73
2022/04/12 07:22:38;;;;;;;15.63;7.32;;;;;;;12.35;60.29;101339.50;5072594;28;20045;-73
2022/04/12 07:25:11;;;;;;;16.10;8.25;;;;;;;12.22;60.40;101334.56;5072804;28;20048;-73
2022/04/12 07:27:39;;;;;;;15.63;8.57;;;;;;;12.28;60.20;101338.94;5072664;28;20044;-73
2022/04/12 07:30:08;;;;;;;14.52;8.07;;;;;;;12.34;60.90;101337.84;5072594;28;20044;-73
2022/04/12 07:32:36;;;;;;;19.92;8.75;;;;;;;12.46;59.39;101340.31;5071197;28;20033;-73
2022/04/12 07:35:05;;;;;;;12.52;7.95;;;;;;;12.60;59.24;101339.75;5072694;28;20059;-73
2022/04/12 07:37:34;;;;;;;13.95;7.95;;;;;;;12.66;59.11;101332.38;5072335;28;20072;-73
2022/04/12 07:40:04;;;;;;;12.75;7.63;;;;;;;12.87;58.14;101336.72;5072385;28;20041;-73
2022/04/12 07:42:32;;;;;;;18.55;9.10;;;;;;;12.63;59.20;101336.47;5071224;28;20045;-73
2022/04/12 07:45:00;;;;;;;13.45;7.55;;;;;;;12.71;59.46;101340.59;5072352;28;20055;-73
2022/04/12 07:47:28;;;;;;;18.25;8.15;;;;;;;12.90;58.34;101341.66;5071150;28;20044;-73
2022/04/12 07:49:56;;;;;;;13.80;7.72;;;;;;;13.08;58.26;101349.59;5072058;28;20372;-73
2022/04/12 07:52:24;;;;;;;11.88;7.80;;;;;;;13.10;57.38;101352.91;5072160;28;20040;-73
2022/04/12 07:54:52;;;;;;;13.00;7.25;;;;;;;13.13;58.37;101350.44;5072169;28;20051;-74
2022/04/12 07:57:21;;;;;;;12.43;7.50;;;;;;;13.28;56.84;101349.56;5070917;28;20491;-73
2022/04/12 07:59:49;;;;;;;12.52;8.35;;;;;;;13.23;56.97;101340.50;5072270;28;20044;-73
2022/04/12 08:02:17;;;;;;;12.68;7.93;;;;;;;13.23;57.02;101344.06;5072087;28;20040;-74
2022/04/12 08:04:45;;;;;;;14.52;8.00;;;;;;;13.26;57.15;101350.94;5071065;28;20051;-74
2022/04/12 08:07:13;;;;;;;10.10;6.22;;;;;;;13.44;56.83;101358.56;5072017;28;20403;-74
2022/04/12 08:09:41;;;;;;;13.25;8.15;;;;;;;13.56;56.13;101350.06;5072085;28;20068;-74
2022/04/12 08:12:09;;;;;;;18.80;9.00;;;;;;;13.59;57.37;101351.38;5070225;28;20407;-74
2022/04/12 08:14:37;;;;;;;14.63;8.10;;;;;;;13.61;55.92;101351.94;5072068;28;20369;-73
2022/04/12 08:17:05;;;;;;;15.25;7.85;;;;;;;13.47;55.93;101337.97;5070231;28;20057;-74
2022/04/12 08:19:33;;;;;;;14.38;7.72;;;;;;;13.66;56.62;101353.84;5071904;28;20044;-73
2022/04/12 08:22:01;;;;;;;16.98;8.15;;;;;;;13.56;55.94;101349.22;5071937;28;20399;-73
2022/04/12 08:24:29;;;;;;;18.08;8.85;;;;;;;13.84;54.47;101344.94;5071800;28;20053;-74
2022/04/12 08:26:57;;;;;;;17.60;8.68;;;;;;;13.97;55.38;101357.28;5070067;28;20052;-74
2022/04/12 08:29:25;;;;;;;12.48;7.88;;;;;;;13.98;55.65;101352.56;5071577;28;20045;-74
2022/04/12 08:31:53;;;;;;;14.35;8.00;;;;;;;13.93;54.51;101350.69;5071539;28;20045;-74
2022/04/12 08:34:21;;;;;;;13.15;8.18;;;;;;;14.04;55.31;101356.13;5071530;28;20060;-74
2022/04/12 08:36:49;;;;;;;11.88;7.63;;;;;;;14.19;53.79;101347.78;5071620;28;20051;-74
2022/04/12 08:39:17;;;;;;;12.60;7.88;;;;;;;14.16;54.72;101347.50;5071870;28;20586;-74
2022/04/12 08:41:45;;;;;;;14.10;8.05;;;;;;;14.36;54.60;101352.88;5071731;28;20052;-74
2022/04/12 08:44:18;;;;;;;13.25;7.78;;;;;;;14.23;55.23;101354.34;5071860;28;20040;-74
2022/04/12 08:46:48;;;;;;;10.90;7.50;;;;;;;14.28;54.24;101358.19;5071691;28;20048;-74
2022/04/12 08:49:18;;;;;;;11.57;7.95;;;;;;;14.32;54.07;101359.25;5071734;28;20051;-73
2022/04/12 08:51:48;;;;;;;13.10;7.97;;;;;;;14.15;54.81;101354.97;5070242;28;20048;-75
2022/04/12 08:54:23;;;;;;;14.68;7.50;;;;;;;14.08;54.11;101360.78;5071692;28;20036;-73
2022/04/12 08:56:52;;;;;;;13.68;8.57;;;;;;;14.22;53.88;101349.13;5070258;28;20048;-73
2022/04/12 08:59:20;;;;;;;11.05;7.55;;;;;;;14.20;53.48;101363.19;5071673;28;20044;-73
2022/04/12 09:01:48;;;;;;;12.32;7.43;;;;;;;14.24;53.07;101356.00;5070385;28;20052;-73
2022/04/12 09:04:16;;;;;;;13.20;8.10;;;;;;;14.37;52.51;101346.28;5071520;28;20037;-74
2022/04/12 09:06:52;;;;;;;11.73;6.95;;;;;;;14.47;53.11;101345.38;5071690;28;20052;-73
2022/04/12 09:09:23;;;;;;;12.45;7.90;;;;;;;14.57;53.27;101352.72;5070099;28;20044;-74
2022/04/12 09:12:06;;;;;;;11.88;7.43;;;;;;;14.72;52.51;101349.00;5071562;28;20040;-74
2022/04/12 09:14:42;;;;;;;12.50;7.75;;;;;;;14.88;52.35;101343.41;5071558;28;20441;-73
2022/04/12 09:17:37;;;;;;;14.80;7.47;;;;;;;14.86;51.87;101345.63;5071461;28;20048;-72
2022/04/12 09:20:17;;;;;;;12.52;7.90;;;;;;;14.89;50.26;101345.88;5067254;28;20044;-72
2022/04/12 09:22:46;;;;;;;11.43;7.45;;;;;;;14.73;51.45;101347.09;5071292;28;20045;-73
2022/04/12 09:25:16;;;;;;;13.68;8.00;;;;;;;14.94;50.61;101349.66;5071344;28;20052;-73
2022/04/12 09:27:49;;;;;;;15.02;7.88;;;;;;;15.01;51.11;101348.22;5071248;28;20049;-73
2022/04/12 09:30:18;;;;;;;14.82;7.82;;;;;;;15.09;50.40;101348.69;5070012;28;20040;-73
2022/04/12 09:32:49;;;;;;;14.00;7.40;;;;;;;15.13;48.97;101349.75;5071194;28;20048;-73
2022/04/12 09:35:17;;;;;;;15.07;8.00;;;;;;;15.00;49.17;101346.56;5071367;28;20040;-73
2022/04/12 09:37:46;;;;;;;11.55;7.30;;;;;;;15.28;48.42;101346.84;5070920;28;20044;-73
2022/04/12 09:40:16;;;;;;;11.32;6.97;;;;;;;15.43;47.48;101343.06;5069858;28;20040;-73
2022/04/12 09:42:55;;;;;;;12.90;7.47;;;;;;;15.67;46.48;101346.91;5071065;28;20399;-73
2022/04/12 09:45:32;;;;;;;12.57;6.85;;;;;;;15.90;46.29;101333.38;5073104;28;20048;-73
2022/04/12 09:48:03;;;;;;;11.27;6.78;;;;;;;15.80;45.11;101323.31;5074542;28;20045;-73
2022/04/12 09:50:51;;;;;;;11.15;6.82;;;;;;;15.84;46.05;101325.16;5074254;28;20045;-73
2022/04/12 09:53:19;;;;;;;14.05;7.60;;;;;;;15.93;44.88;101322.59;5074681;28;20048;-73
2022/04/12 09:55:49;;;;;;;12.95;6.93;;;;;;;16.02;44.19;101328.25;5074486;28;20048;-73
2022/04/12 09:58:21;;;;;;;9.48;6.10;;;;;;;16.27;44.07;101319.88;5074474;28;20063;-73
2022/04/12 10:00:49;;;;;;;10.93;7.03;;;;;;;15.96;43.82;101324.75;5074358;28;20419;-73
2022/04/12 10:03:19;;;;;;;14.40;7.03;;;;;;;15.89;44.18;101317.94;5074446;28;20044;-73
2022/04/12 10:05:47;;;;;;;14.88;7.50;;;;;;;16.05;44.54;101318.56;5074520;28;20071;-73
2022/04/12 10:08:22;;;;;;;15.10;7.35;;;;;;;16.04;43.59;101316.91;5074314;28;20053;-73
2022/04/12 10:10:51;;;;;;;12.60;7.10;;;;;;;16.03;44.07;101313.31;5074142;28;20502;-73
2022/04/12 10:13:21;;;;;;;14.25;7.57;;;;;;;15.97;43.42;101315.34;5074273;28;20044;-73
2022/04/12 10:15:49;;;;;;;10.93;7.28;;;;;;;15.92;42.42;101309.03;5072835;28;20044;-74
2022/04/12 10:18:20;;;;;;;13.27;7.40;;;;;;;16.28;44.34;101304.94;5073601;28;20402;-72
2022/04/12 10:20:48;;;;;;;14.80;7.03;;;;;;;16.36;41.33;101305.09;5069319;28;20037;-73
2022/04/12 10:23:19;;;;;;;13.75;7.50;;;;;;;16.57;41.61;101301.97;5073934;28;20486;-73
2022/04/12 10:25:50;;;;;;;14.63;7.00;;;;;;;16.59;41.44;101294.22;5073382;28;20049;-72
2022/04/12 10:28:19;;;;;;;11.30;6.97;;;;;;;16.95;42.46;101298.25;5072743;28;20395;-72
2022/04/12 10:30:48;;;;;;;13.10;7.28;;;;;;;16.98;41.72;101288.53;5073618;28;20048;-73
2022/04/12 10:33:16;;;;;;;16.65;8.02;;;;;;;16.68;40.34;101287.97;5059970;28;20055;-73
2022/04/12 10:35:44;;;;;;;12.85;7.25;;;;;;;16.79;40.69;101281.13;5073461;28;20051;-73
2022/04/12 10:38:13;;;;;;;13.98;7.30;;;;;;;16.60;41.37;101279.25;5073483;28;20072;-73
2022/04/12 10:40:46;;;;;;;13.95;7.68;;;;;;;16.47;40.21;101274.53;5073089;28;20071;-73
2022/04/12 10:43:21;;;;;;;15.00;7.00;;;;;;;16.92;40.05;101269.25;5072790;28;20040;-73
2022/04/12 10:45:51;;;;;;;11.10;7.40;;;;;;;16.99;39.22;101268.03;5073316;28;20040;-73
2022/04/12 10:48:19;;;;;;;16.05;7.97;;;;;;;17.05;40.49;101266.84;5073539;28;20051;-73
2022/04/12 10:50:56;;;;;;;15.05;8.90;;;;;;;17.32;39.89;101259.66;5099130;28;20408;-73
2022/04/12 10:53:39;;;;;;;10.05;6.40;;;;;;;17.53;38.32;101270.25;5067384;28;20044;-73
2022/04/12 10:56:15;;;;;;;11.73;7.03;;;;;;;17.63;38.85;101260.91;5073014;28;20052;-73
2022/04/12 10:58:44;;;;;;;10.95;7.18;;;;;;;17.69;38.74;101254.97;5071293;28;20048;-73
2022/04/12 11:01:27;;;;;;;15.52;7.38;;;;;;;17.78;37.51;101248.69;5077276;28;20501;-73
2022/04/12 11:03:56;;;;;;;9.88;6.32;;;;;;;17.71;37.75;101252.69;5081289;28;20040;-73
2022/04/12 11:06:26;;;;;;;13.93;6.82;;;;;;;17.75;36.93;101252.91;5088215;28;20052;-73
2022/04/12 11:08:56;;;;;;;11.05;7.05;;;;;;;17.58;36.60;101248.03;5086069;28;20047;-73
2022/04/12 11:11:33;;;;;;;11.27;7.40;;;;;;;17.68;37.40;101249.72;5091172;28;20478;-73
2022/04/12 11:14:27;;;;;;;11.82;6.70;;;;;;;18.07;37.96;101244.69;5092062;28;20048;-74
2022/04/12 11:16:59;;;;;;;13.23;7.22;;;;;;;18.23;37.09;101237.63;5084978;28;20043;-73
2022/04/12 11:19:28;;;;;;;14.77;7.68;;;;;;;18.26;35.69;101230.66;5081401;28;20044;-74
2022/04/12 11:22:00;;;;;;;13.65;6.88;;;;;;;18.31;36.92;101241.59;5086194;28;20043;-73
2022/04/12 11:24:30;;;;;;;11.50;6.60;;;;;;;18.48;38.34;101237.31;5088945;28;20051;-73
2022/04/12 11:27:13;;;;;;;12.35;7.10;;;;;;;18.37;37.46;101247.81;5086512;28;20047;-73
2022/04/12 11:29:43;;;;;;;13.05;6.75;;;;;;;18.34;38.40;101232.63;5071350;28;20049;-73
2022/04/12 11:32:11;;;;;;;14.38;7.43;;;;;;;18.42;38.11;101224.72;5078635;28;20045;-73
2022/04/12 11:34:40;;;;;;;10.65;7.53;;;;;;;18.31;38.08;101230.53;5080394;28;20063;-73
2022/04/12 11:37:11;;;;;;;11.43;7.32;;;;;;;18.63;38.72;101230.53;5078078;28;20048;-73
2022/04/12 11:39:44;;;;;;;12.57;7.07;;;;;;;18.40;38.38;101230.56;5081780;28;20044;-73
2022/04/12 11:42:14;;;;;;;12.73;7.15;;;;;;;18.04;39.12;101240.56;5080182;28;20044;-73
2022/04/12 11:44:53;;;;;;;14.80;7.45;;;;;;;18.08;37.98;101232.50;5081500;28;20039;-73
2022/04/12 11:47:27;;;;;;;10.63;7.32;;;;;;;18.38;37.79;101232.84;5081169;28;20043;-73
2022/04/12 11:49:56;;;;;;;11.48;7.03;;;;;;;18.45;38.98;101232.38;5087990;28;20040;-74
2022/04/12 11:52:27;;;;;;;11.38;6.78;;;;;;;18.67;37.61;101225.97;5071136;28;20623;-74
2022/04/12 11:55:00;;;;;;;11.48;6.85;;;;;;;18.69;35.95;101215.38;5090254;28;20036;-73
2022/04/12 11:57:28;;;;;;;10.30;6.95;;;;;;;18.84;37.58;101216.91;5080229;28;20044;-73
2022/04/12 11:59:57;;;;;;;13.00;7.35;;;;;;;18.99;37.33;101217.59;5072028;28;20055;-73
2022/04/12 12:02:33;;;;;;;10.90;7.18;;;;;;;19.03;37.22;101215.84;5071876;28;20051;-73
2022/04/12 12:05:04;;;;;;;11.93;6.53;;;;;;;19.14;37.24;101208.03;5071899;28;20044;-73
2022/04/12 12:07:36;;;;;;;19.50;7.13;;;;;;;18.95;36.81;101209.09;5071192;28;20041;-73
2022/04/12 12:10:07;;;;;;;10.35;6.45;;;;;;;19.15;35.73;101213.25;5070717;28;20376;-73
2022/04/12 12:12:45;;;;;;;11.73;7.05;;;;;;;19.33;36.63;101205.81;5071697;28;20043;-74
2022/04/12 12:15:18;;;;;;;12.48;7.35;;;;;;;19.30;36.72;101206.44;5071826;28;20383;-73
2022/04/12 12:17:49;;;;;;;11.70;6.60;;;;;;;19.26;35.98;101205.44;5071608;28;20372;-73
2022/04/12 12:20:18;;;;;;;10.80;6.53;;;;;;;19.30;35.57;101216.69;5071599;28;20376;-73
2022/04/12 12:22:49;;;;;;;12.38;6.13;;;;;;;19.41;35.95;101203.34;5081526;28;20041;-73